Time,TemperatureF,DewpointF,PressureIn,WindDirection,WindDirectionDegrees,WindSpeedMPH,WindSpeedGustMPH,Humidity,HourlyPrecipIn,Conditions,Clouds,dailyrainin,SolarRadiationWatts/m^2,SoftwareType,DateUTC
2017-02-24 00:03:00,61.2,58.5,29.80,ESE,108,0.0,0.0,91,0.00,,,0.00,0.00,Weather logger V3.0.,2017-02-24 05:03:00,
2017-02-24 00:08:00,61.3,58.6,29.79,SE,131,0.0,0.0,91,0.00,,,0.00,0.00,Weather logger V3.0.,2017-02-24 05:08:00,
2017-02-24 00:13:00,61.2,58.5,29.79,ESE,104,0.0,0.0,91,0.00,,,0.00,0.00,Weather logger V3.0.,2017-02-24 05:13:00,
2017-02-24 00:18:00,61.2,58.5,29.79,SE,139,0.0,0.0,91,0.00,,,0.00,0.00,Weather logger V3.0.,2017-02-24 05:18:00,
2017-02-24 00:23:00,61.3,58.5,29.79,SE,142,0.0,0.0,90,0.00,,,0.00,0.00,Weather logger V3.0.,2017-02-24 05:23:00,
2017-02-24 00:28:00,61.2,58.3,29.79,SE,133,0.0,0.0,90,0.00,,,0.00,0.00,Weather logger V3.0.,2017-02-24 05:28:00,
2017-02-24 00:33:00,61.2,58.3,29.79,SSE,157,2.5,4.9,90,0.00,,,0.00,0.00,Weather logger V3.0.,2017-02-24 05:33:00,
2017-02-24 00:38:00,61.3,58.5,29.79,SSE,156,0.2,2.5,90,0.00,,,0.00,0.00,Weather logger V3.0.,2017-02-24 05:38:00,
2017-02-24 00:44:00,61.3,58.5,29.79,SE,132,0.0,0.0,90,0.00,,,0.00,0.00,Weather logger V3.0.,2017-02-24 05:44:00,
2017-02-24 00:49:00,61.3,58.5,29.79,SSE,151,0.2,2.5,90,0.00,,,0.00,0.00,Weather logger V3.0.,2017-02-24 05:49:00,
2017-02-24 00:54:00,61.2,58.5,29.79,SSE,154,0.2,2.5,91,0.00,,,0.00,0.00,Weather logger V3.0.,2017-02-24 05:54:00,
2017-02-24 00:59:00,61.0,58.1,29.79,SE,146,0.0,0.0,90,0.00,,,0.00,0.00,Weather logger V3.0.,2017-02-24 05:59:00,
2017-02-24 01:04:00,61.0,58.3,29.79,SSE,149,0.0,0.0,91,0.00,,,0.00,0.00,Weather logger V3.0.,2017-02-24 06:04:00,
2017-02-24 01:09:00,60.8,58.3,29.79,SE,130,0.0,0.0,91,0.00,,,0.00,0.00,Weather logger V3.0.,2017-02-24 06:09:00,
2017-02-24 01:14:00,60.6,58.3,29.78,SSE,148,1.1,2.5,92,0.00,,,0.00,0.00,Weather logger V3.0.,2017-02-24 06:14:00,
2017-02-24 01:19:00,60.4,58.1,29.79,SE,143,0.2,2.5,92,0.00,,,0.00,0.00,Weather logger V3.0.,2017-02-24 06:19:00,
2017-02-24 01:24:00,60.4,58.1,29.79,SSE,148,0.0,0.0,92,0.00,,,0.00,0.00,Weather logger V3.0.,2017-02-24 06:24:00,
2017-02-24 01:29:00,60.4,58.1,29.79,SSE,160,1.1,2.5,92,0.00,,,0.00,0.00,Weather logger V3.0.,2017-02-24 06:29:00,
2017-02-24 01:34:00,60.3,57.9,29.79,SE,138,0.0,0.0,92,0.00,,,0.00,0.00,Weather logger V3.0.,2017-02-24 06:34:00,
2017-02-24 01:39:00,60.3,57.9,29.79,SE,143,0.0,0.0,92,0.00,,,0.00,0.00,Weather logger V3.0.,2017-02-24 06:39:00,
2017-02-24 01:44:00,60.1,57.7,29.79,SE,130,0.0,0.0,92,0.00,,,0.00,0.00,Weather logger V3.0.,2017-02-24 06:44:00,
2017-02-24 01:50:00,60.1,57.7,29.79,SSE,157,0.2,2.5,92,0.00,,,0.00,0.00,Weather logger V3.0.,2017-02-24 06:50:00,
2017-02-24 01:56:00,60.1,57.7,29.79,SE,130,0.0,0.0,92,0.00,,,0.00,0.00,Weather logger V3.0.,2017-02-24 06:56:00,
2017-02-24 02:01:00,59.9,57.6,29.79,SE,129,0.0,0.0,92,0.00,,,0.00,0.00,Weather logger V3.0.,2017-02-24 07:01:00,
2017-02-24 02:06:00,59.7,57.4,29.79,SE,136,0.0,0.0,92,0.00,,,0.00,0.00,Weather logger V3.0.,2017-02-24 07:06:00,
2017-02-24 02:11:00,59.7,57.4,29.79,SSE,147,0.2,2.5,92,0.00,,,0.00,0.00,Weather logger V3.0.,2017-02-24 07:11:00,
2017-02-24 02:16:00,59.5,57.2,29.79,SSE,148,0.2,2.5,92,0.00,,,0.00,0.00,Weather logger V3.0.,2017-02-24 07:16:00,
2017-02-24 02:21:00,59.5,57.2,29.78,SE,135,0.0,0.0,92,0.00,,,0.00,0.00,Weather logger V3.0.,2017-02-24 07:21:00,
2017-02-24 02:26:00,59.5,57.2,29.79,SE,142,0.0,0.0,92,0.00,,,0.00,0.00,Weather logger V3.0.,2017-02-24 07:26:00,
2017-02-24 02:31:00,59.5,57.2,29.79,SE,139,1.8,2.5,92,0.00,,,0.00,0.00,Weather logger V3.0.,2017-02-24 07:31:00,
2017-02-24 02:36:00,59.5,57.0,29.79,SE,143,0.0,0.0,91,0.00,,,0.00,0.00,Weather logger V3.0.,2017-02-24 07:36:00,
2017-02-24 02:41:00,59.7,57.2,29.79,SE,131,0.0,0.0,91,0.00,,,0.00,0.00,Weather logger V3.0.,2017-02-24 07:41:00,
2017-02-24 02:46:00,59.7,57.2,29.79,SE,128,0.0,0.0,91,0.00,,,0.00,0.00,Weather logger V3.0.,2017-02-24 07:46:00,
2017-02-24 02:51:00,59.9,57.4,29.79,SSE,158,3.6,4.9,91,0.00,,,0.00,0.00,Weather logger V3.0.,2017-02-24 07:51:00,
2017-02-24 02:56:00,59.9,57.0,29.79,SSE,157,1.1,2.5,90,0.00,,,0.00,0.00,Weather logger V3.0.,2017-02-24 07:56:00,
2017-02-24 03:01:00,59.9,57.0,29.79,SSE,150,0.0,0.0,90,0.00,,,0.00,0.00,Weather logger V3.0.,2017-02-24 08:01:00,
2017-02-24 03:06:00,59.9,57.0,29.79,SE,127,0.0,0.0,90,0.00,,,0.00,0.00,Weather logger V3.0.,2017-02-24 08:06:00,
2017-02-24 03:11:00,59.9,57.0,29.79,SSE,165,0.0,0.0,90,0.00,,,0.00,0.00,Weather logger V3.0.,2017-02-24 08:11:00,
2017-02-24 03:16:00,59.7,56.8,29.79,SE,142,0.2,2.5,90,0.00,,,0.00,0.00,Weather logger V3.0.,2017-02-24 08:16:00,
2017-02-24 03:21:00,59.7,57.2,29.79,SE,146,0.0,0.0,91,0.00,,,0.00,0.00,Weather logger V3.0.,2017-02-24 08:21:00,
2017-02-24 03:26:00,59.5,57.0,29.79,SSE,156,0.0,0.0,91,0.00,,,0.00,0.00,Weather logger V3.0.,2017-02-24 08:26:00,
2017-02-24 03:32:00,59.5,57.0,29.79,SSE,147,0.2,2.5,91,0.00,,,0.00,0.00,Weather logger V3.0.,2017-02-24 08:32:00,
2017-02-24 03:37:00,59.4,56.8,29.79,SSE,149,0.0,0.0,91,0.00,,,0.00,0.00,Weather logger V3.0.,2017-02-24 08:37:00,
2017-02-24 03:42:00,59.2,56.8,29.79,SE,141,0.0,0.0,92,0.00,,,0.00,0.00,Weather logger V3.0.,2017-02-24 08:42:00,
2017-02-24 03:47:00,59.2,56.8,29.79,SE,142,0.0,0.0,92,0.00,,,0.00,0.00,Weather logger V3.0.,2017-02-24 08:47:00,
2017-02-24 03:52:00,59.0,57.0,29.79,SE,133,0.0,0.0,93,0.00,,,0.00,0.00,Weather logger V3.0.,2017-02-24 08:52:00,
2017-02-24 03:57:00,58.6,56.7,29.79,SE,133,0.0,0.0,93,0.00,,,0.00,0.00,Weather logger V3.0.,2017-02-24 08:57:00,
2017-02-24 04:02:00,58.5,56.5,29.79,SSE,152,0.0,0.0,93,0.00,,,0.00,0.00,Weather logger V3.0.,2017-02-24 09:02:00,
2017-02-24 04:07:00,57.9,56.5,29.79,SSE,152,0.0,0.0,95,0.00,,,0.00,0.00,Weather logger V3.0.,2017-02-24 09:07:00,
2017-02-24 04:12:00,57.6,56.1,29.79,SE,136,0.0,0.0,95,0.00,,,0.00,0.00,Weather logger V3.0.,2017-02-24 09:12:00,
2017-02-24 04:17:00,57.4,55.9,29.79,SSE,147,0.0,0.0,95,0.00,,,0.00,0.00,Weather logger V3.0.,2017-02-24 09:17:00,
2017-02-24 04:22:00,57.4,55.8,29.79,SE,128,0.0,0.0,94,0.00,,,0.00,0.00,Weather logger V3.0.,2017-02-24 09:22:00,
2017-02-24 04:28:00,57.6,55.6,29.79,SE,135,0.0,0.0,93,0.00,,,0.00,0.00,Weather logger V3.0.,2017-02-24 09:28:00,
2017-02-24 04:33:00,57.6,55.6,29.79,SE,136,0.0,0.0,93,0.00,,,0.00,0.00,Weather logger V3.0.,2017-02-24 09:33:00,
2017-02-24 04:38:00,57.7,55.8,29.78,SE,133,0.0,0.0,93,0.00,,,0.00,0.00,Weather logger V3.0.,2017-02-24 09:38:00,
2017-02-24 04:43:00,57.9,56.3,29.79,SSE,147,0.0,0.0,94,0.00,,,0.00,0.00,Weather logger V3.0.,2017-02-24 09:43:00,
2017-02-24 04:48:00,58.1,56.5,29.78,SSE,155,0.0,0.0,94,0.00,,,0.00,0.00,Weather logger V3.0.,2017-02-24 09:48:00,
2017-02-24 04:53:00,57.9,56.3,29.79,SE,146,0.0,0.0,94,0.00,,,0.00,0.00,Weather logger V3.0.,2017-02-24 09:53:00,
2017-02-24 04:58:00,57.9,55.9,29.78,SSE,156,0.4,2.5,93,0.00,,,0.00,0.00,Weather logger V3.0.,2017-02-24 09:58:00,
2017-02-24 05:03:00,58.1,56.1,29.78,SSE,152,0.4,2.5,93,0.00,,,0.00,0.00,Weather logger V3.0.,2017-02-24 10:03:00,
2017-02-24 05:08:00,58.1,56.1,29.77,SSE,153,1.1,2.5,93,0.00,,,0.00,0.00,Weather logger V3.0.,2017-02-24 10:08:00,
2017-02-24 05:13:00,58.3,56.3,29.78,SE,143,0.2,2.5,93,0.00,,,0.00,0.00,Weather logger V3.0.,2017-02-24 10:13:00,
2017-02-24 05:18:00,58.3,56.3,29.77,SE,142,1.1,2.5,93,0.00,,,0.00,0.00,Weather logger V3.0.,2017-02-24 10:18:00,
2017-02-24 05:23:00,58.3,56.3,29.78,SE,146,0.0,0.0,93,0.00,,,0.00,0.00,Weather logger V3.0.,2017-02-24 10:23:00,
2017-02-24 05:28:00,58.5,56.5,29.77,SE,127,0.0,0.0,93,0.00,,,0.00,0.00,Weather logger V3.0.,2017-02-24 10:28:00,
2017-02-24 05:33:00,58.5,56.1,29.77,SSE,149,2.5,4.9,92,0.00,,,0.00,0.00,Weather logger V3.0.,2017-02-24 10:33:00,
2017-02-24 05:38:00,58.5,55.9,29.78,South,190,2.7,4.9,91,0.00,,,0.00,0.00,Weather logger V3.0.,2017-02-24 10:38:00,
2017-02-24 05:44:00,58.6,56.1,29.77,SE,140,0.0,0.0,91,0.00,,,0.00,0.00,Weather logger V3.0.,2017-02-24 10:44:00,
2017-02-24 05:49:00,58.6,56.1,29.78,South,184,0.4,2.5,91,0.00,,,0.00,0.00,Weather logger V3.0.,2017-02-24 10:49:00,
2017-02-24 05:54:00,58.8,56.3,29.79,SSE,150,0.4,2.5,91,0.00,,,0.00,0.00,Weather logger V3.0.,2017-02-24 10:54:00,
2017-02-24 05:59:00,59.0,56.5,29.78,SSE,163,1.1,2.5,91,0.00,,,0.00,0.00,Weather logger V3.0.,2017-02-24 10:59:00,
2017-02-24 06:04:00,59.2,56.3,29.78,SE,129,0.9,2.5,90,0.00,,,0.00,0.00,Weather logger V3.0.,2017-02-24 11:04:00,
2017-02-24 06:09:00,59.2,56.3,29.78,SSE,158,2.7,4.9,90,0.00,,,0.00,0.00,Weather logger V3.0.,2017-02-24 11:09:00,
2017-02-24 06:14:00,59.2,56.3,29.78,SSE,149,2.0,2.5,90,0.00,,,0.00,0.00,Weather logger V3.0.,2017-02-24 11:14:00,
2017-02-24 06:19:00,59.2,56.3,29.78,SSE,153,1.8,2.5,90,0.00,,,0.00,0.00,Weather logger V3.0.,2017-02-24 11:19:00,
2017-02-24 06:24:00,59.2,56.7,29.78,SE,143,0.9,2.5,91,0.00,,,0.00,0.00,Weather logger V3.0.,2017-02-24 11:24:00,
2017-02-24 06:29:00,59.2,56.7,29.77,SE,138,2.7,4.9,91,0.00,,,0.00,0.00,Weather logger V3.0.,2017-02-24 11:29:00,
2017-02-24 06:34:00,59.0,56.1,29.77,SSE,157,2.0,2.5,90,0.00,,,0.00,0.00,Weather logger V3.0.,2017-02-24 11:34:00,
2017-02-24 06:39:00,59.0,56.5,29.78,SSE,154,1.1,2.5,91,0.00,,,0.00,0.00,Weather logger V3.0.,2017-02-24 11:39:00,
2017-02-24 06:44:00,58.8,56.5,29.78,SSE,149,0.0,0.0,92,0.00,,,0.00,0.00,Weather logger V3.0.,2017-02-24 11:44:00,
2017-02-24 06:49:00,58.6,56.3,29.77,SE,138,0.0,0.0,92,0.00,,,0.00,0.00,Weather logger V3.0.,2017-02-24 11:49:00,
2017-02-24 06:54:00,58.5,56.1,29.77,South,170,0.2,2.5,92,0.00,,,0.00,0.00,Weather logger V3.0.,2017-02-24 11:54:00,
2017-02-24 07:00:00,58.3,56.3,29.77,SSE,165,0.0,0.0,93,0.00,,,0.00,0.00,Weather logger V3.0.,2017-02-24 12:00:00,
2017-02-24 07:05:00,58.1,56.1,29.77,SE,142,1.1,2.5,93,0.00,,,0.00,0.00,Weather logger V3.0.,2017-02-24 12:05:00,
2017-02-24 07:10:00,58.1,55.8,29.77,SSE,157,1.3,2.5,92,0.00,,,0.00,0.00,Weather logger V3.0.,2017-02-24 12:10:00,
2017-02-24 07:15:00,58.1,55.8,29.78,SE,143,0.2,2.5,92,0.00,,,0.00,1.50,Weather logger V3.0.,2017-02-24 12:15:00,
2017-02-24 07:20:00,58.3,55.9,29.78,SSE,163,1.3,2.5,92,0.00,,,0.00,3.71,Weather logger V3.0.,2017-02-24 12:20:00,
2017-02-24 07:25:00,58.3,55.9,29.78,SSE,161,0.0,0.0,92,0.00,,,0.00,7.27,Weather logger V3.0.,2017-02-24 12:25:00,
2017-02-24 07:30:00,58.5,56.1,29.78,SE,142,0.0,0.0,92,0.00,,,0.00,12.78,Weather logger V3.0.,2017-02-24 12:30:00,
2017-02-24 07:35:00,58.5,56.1,29.79,SSE,154,0.0,0.0,92,0.00,,,0.00,17.61,Weather logger V3.0.,2017-02-24 12:35:00,
2017-02-24 07:40:00,58.6,56.1,29.79,SSE,168,0.0,0.0,91,0.00,,,0.00,21.67,Weather logger V3.0.,2017-02-24 12:40:00,
2017-02-24 07:45:00,58.6,56.1,29.78,SSE,156,0.4,2.5,91,0.00,,,0.00,23.03,Weather logger V3.0.,2017-02-24 12:45:00,
2017-02-24 07:50:00,58.8,55.9,29.78,ESE,102,0.0,0.0,90,0.00,,,0.00,29.22,Weather logger V3.0.,2017-02-24 12:50:00,
2017-02-24 07:55:00,59.0,56.1,29.78,SSE,160,1.1,2.5,90,0.00,,,0.00,28.65,Weather logger V3.0.,2017-02-24 12:55:00,
2017-02-24 08:00:00,59.2,55.9,29.78,SSE,160,2.7,4.9,89,0.00,,,0.00,34.43,Weather logger V3.0.,2017-02-24 13:00:00,
2017-02-24 08:05:00,59.4,56.1,29.78,SSE,153,2.7,4.9,89,0.00,,,0.00,41.94,Weather logger V3.0.,2017-02-24 13:05:00,
2017-02-24 08:10:00,59.5,56.3,29.78,SE,143,1.3,2.5,89,0.00,,,0.00,35.89,Weather logger V3.0.,2017-02-24 13:10:00,
2017-02-24 08:16:00,59.7,56.5,29.79,South,182,0.0,0.0,89,0.00,,,0.00,44.75,Weather logger V3.0.,2017-02-24 13:16:00,
2017-02-24 08:21:00,59.7,55.9,29.79,SSE,161,0.2,2.5,87,0.00,,,0.00,52.25,Weather logger V3.0.,2017-02-24 13:21:00,
2017-02-24 08:26:00,60.1,55.6,29.78,SSE,152,2.7,4.9,85,0.00,,,0.00,38.55,Weather logger V3.0.,2017-02-24 13:26:00,
2017-02-24 08:31:00,60.3,55.4,29.78,SE,139,2.0,2.5,84,0.00,,,0.00,33.13,Weather logger V3.0.,2017-02-24 13:31:00,
2017-02-24 08:36:00,60.4,55.2,29.78,SE,144,0.4,2.5,83,0.00,,,0.00,36.21,Weather logger V3.0.,2017-02-24 13:36:00,
2017-02-24 08:41:00,60.8,55.2,29.78,SSE,155,4.5,4.9,82,0.00,,,0.00,50.22,Weather logger V3.0.,2017-02-24 13:41:00,
2017-02-24 08:46:00,61.3,55.2,29.78,ESE,113,0.9,2.5,80,0.00,,,0.00,50.48,Weather logger V3.0.,2017-02-24 13:46:00,
2017-02-24 08:51:00,61.9,55.4,29.79,SE,141,2.5,4.9,79,0.00,,,0.00,53.40,Weather logger V3.0.,2017-02-24 13:51:00,
2017-02-24 08:56:00,62.4,55.9,29.78,SSE,164,2.9,4.9,79,0.00,,,0.00,83.65,Weather logger V3.0.,2017-02-24 13:56:00,
2017-02-24 09:01:00,63.0,56.3,29.79,SSE,150,2.5,2.5,79,0.00,,,0.00,91.81,Weather logger V3.0.,2017-02-24 14:01:00,
2017-02-24 09:06:00,63.7,56.7,29.79,SSE,167,6.7,7.4,78,0.00,,,0.00,64.33,Weather logger V3.0.,2017-02-24 14:06:00,
2017-02-24 09:11:00,64.0,57.0,29.79,South,184,4.2,4.9,78,0.00,,,0.00,64.02,Weather logger V3.0.,2017-02-24 14:11:00,
2017-02-24 09:16:00,64.4,57.4,29.79,ESE,112,1.3,2.5,78,0.00,,,0.00,105.73,Weather logger V3.0.,2017-02-24 14:16:00,
2017-02-24 09:21:00,64.8,57.7,29.78,SSE,163,3.6,4.9,78,0.00,,,0.00,137.58,Weather logger V3.0.,2017-02-24 14:21:00,
2017-02-24 09:26:00,65.1,58.1,29.79,SSW,201,1.3,4.9,78,0.00,,,0.00,141.35,Weather logger V3.0.,2017-02-24 14:26:00,
2017-02-24 09:32:00,65.3,57.6,29.78,SE,146,2.7,4.9,76,0.00,,,0.00,134.50,Weather logger V3.0.,2017-02-24 14:32:00,
2017-02-24 09:37:00,65.5,57.7,29.78,SE,143,0.0,0.0,76,0.00,,,0.00,116.32,Weather logger V3.0.,2017-02-24 14:37:00,
2017-02-24 09:42:00,65.8,58.5,29.79,SSE,157,4.5,4.9,77,0.00,,,0.00,118.98,Weather logger V3.0.,2017-02-24 14:42:00,
2017-02-24 09:47:00,65.8,58.8,29.79,SSE,162,0.4,2.5,78,0.00,,,0.00,145.99,Weather logger V3.0.,2017-02-24 14:47:00,
2017-02-24 09:52:00,66.0,58.6,29.78,SSE,158,4.0,4.9,77,0.00,,,0.00,88.28,Weather logger V3.0.,2017-02-24 14:52:00,
2017-02-24 09:57:00,66.2,58.8,29.78,SSE,149,2.5,2.5,77,0.00,,,0.00,103.10,Weather logger V3.0.,2017-02-24 14:57:00,
2017-02-24 10:02:00,66.6,58.1,29.78,SSE,151,1.1,2.5,74,0.00,,,0.00,104.99,Weather logger V3.0.,2017-02-24 15:02:00,
2017-02-24 10:07:00,66.9,58.5,29.78,SE,145,2.7,4.9,74,0.00,,,0.00,150.87,Weather logger V3.0.,2017-02-24 15:07:00,
2017-02-24 10:12:00,67.3,58.5,29.77,SE,130,4.2,4.9,73,0.00,,,0.00,156.74,Weather logger V3.0.,2017-02-24 15:12:00,
2017-02-24 10:13:00,67.3,57.9,29.77,SSE,154,1.8,2.5,72,0.00,,,0.00,161.63,Weather logger V3.0.,2017-02-24 15:13:00,
2017-02-24 10:18:00,68.0,58.3,29.77,South,175,5.6,7.4,71,0.00,,,0.00,153.17,Weather logger V3.0.,2017-02-24 15:18:00,
2017-02-24 10:23:00,68.7,59.4,29.77,SSW,202,0.9,2.5,72,0.00,,,0.00,179.73,Weather logger V3.0.,2017-02-24 15:23:00,
2017-02-24 10:28:00,69.3,59.9,29.77,East,88,2.5,4.9,72,0.00,,,0.00,186.54,Weather logger V3.0.,2017-02-24 15:28:00,
2017-02-24 10:32:00,69.6,59.9,29.76,South,175,2.9,4.9,71,0.00,,,0.00,178.25,Weather logger V3.0.,2017-02-24 15:32:00,
2017-02-24 10:37:00,70.2,59.5,29.75,South,177,3.6,4.9,69,0.00,,,0.00,225.24,Weather logger V3.0.,2017-02-24 15:37:00,
2017-02-24 10:42:00,70.7,60.1,29.75,SSE,149,2.9,4.9,69,0.00,,,0.00,208.37,Weather logger V3.0.,2017-02-24 15:42:00,
2017-02-24 10:47:00,71.1,60.4,29.75,SSE,148,0.4,2.5,69,0.00,,,0.00,214.78,Weather logger V3.0.,2017-02-24 15:47:00,
2017-02-24 10:52:00,71.4,61.2,29.75,SSE,155,5.8,7.4,70,0.00,,,0.00,198.15,Weather logger V3.0.,2017-02-24 15:52:00,
2017-02-24 10:57:00,71.6,61.3,29.74,SSE,149,4.2,7.4,70,0.00,,,0.00,184.28,Weather logger V3.0.,2017-02-24 15:57:00,
2017-02-24 11:02:00,71.8,61.5,29.74,SSE,152,4.5,4.9,70,0.00,,,0.00,151.12,Weather logger V3.0.,2017-02-24 16:02:00,
2017-02-24 11:08:00,71.8,61.5,29.74,South,184,1.8,2.5,70,0.00,,,0.00,168.73,Weather logger V3.0.,2017-02-24 16:08:00,
2017-02-24 11:13:00,71.8,61.5,29.74,SSE,154,4.2,4.9,70,0.00,,,0.00,153.17,Weather logger V3.0.,2017-02-24 16:13:00,
2017-02-24 11:18:00,71.4,61.2,29.74,SSW,198,4.0,4.9,70,0.00,,,0.00,188.10,Weather logger V3.0.,2017-02-24 16:18:00,
2017-02-24 11:23:00,71.2,61.0,29.73,SW,214,6.5,7.4,70,0.00,,,0.00,153.58,Weather logger V3.0.,2017-02-24 16:23:00,
2017-02-24 11:28:00,71.4,60.8,29.73,SSE,148,4.2,4.9,69,0.00,,,0.00,285.33,Weather logger V3.0.,2017-02-24 16:28:00,
2017-02-24 11:33:00,71.6,61.0,29.73,SSE,167,4.2,7.4,69,0.00,,,0.00,315.70,Weather logger V3.0.,2017-02-24 16:33:00,
2017-02-24 11:38:00,72.0,61.3,29.72,SE,141,4.2,7.4,69,0.00,,,0.00,256.88,Weather logger V3.0.,2017-02-24 16:38:00,